createdAt,value
2023-05-01T06:43:03.619Z,33.09
2023-05-01T06:45:30.621Z,33.28
2023-05-01T06:47:57.003Z,33.30
2023-05-01T06:50:23.460Z,33.35
2023-05-01T06:52:49.810Z,33.34
2023-05-01T06:55:16.455Z,33.33
2023-05-01T06:57:42.872Z,33.46
2023-05-01T07:00:10.462Z,33.45
2023-05-01T07:02:37.827Z,33.51
2023-05-01T07:05:05.192Z,33.57
2023-05-01T07:07:31.632Z,33.64
2023-05-01T07:09:58.325Z,33.68
2023-05-01T07:12:25.179Z,33.60
2023-05-01T07:14:51.940Z,33.80
2023-05-01T07:17:18.274Z,33.91
2023-05-01T07:19:44.681Z,33.83
2023-05-01T07:22:11.990Z,33.88
2023-05-01T07:24:38.269Z,33.88
2023-05-01T07:27:04.703Z,34.02
2023-05-01T07:29:31.065Z,33.94
2023-05-01T07:31:57.429Z,34.01
2023-05-01T07:34:24.011Z,33.92
2023-05-01T07:36:50.345Z,34.17
2023-05-01T07:39:17.318Z,34.15
2023-05-01T07:41:44.570Z,34.23
2023-05-01T07:44:11.602Z,34.26
2023-05-01T07:46:38.778Z,34.33
2023-05-01T07:49:06.045Z,34.24
2023-05-01T07:51:33.155Z,34.27
2023-05-01T07:54:04.731Z,34.35
2023-05-01T07:56:32.303Z,34.32
2023-05-01T07:58:59.480Z,34.45
2023-05-01T08:01:27.052Z,34.48
2023-05-01T08:07:10.933Z,34.78
2023-05-01T08:09:38.088Z,34.72
2023-05-01T08:12:05.281Z,34.82
2023-05-01T08:14:32.347Z,34.99
2023-05-01T08:16:59.630Z,35.11
2023-05-01T08:19:28.179Z,35.17
2023-05-01T08:21:55.233Z,35.16
2023-05-01T08:24:22.414Z,35.26
2023-05-01T08:26:49.478Z,35.29
2023-05-01T08:29:16.530Z,35.40
2023-05-01T08:31:44.171Z,35.42
2023-05-01T08:34:11.435Z,35.52
2023-05-01T08:36:38.577Z,35.52
2023-05-01T08:39:05.664Z,35.48
2023-05-01T08:41:33.443Z,35.60
2023-05-01T08:44:04.146Z,35.57
2023-05-01T08:47:06.900Z,35.68
2023-05-01T08:49:37.480Z,35.61
2023-05-01T08:52:07.443Z,35.70
2023-05-01T08:54:36.858Z,35.68
2023-05-01T08:57:04.957Z,35.69
2023-05-01T08:59:35.993Z,35.73
2023-05-01T09:02:05.241Z,35.71
2023-05-01T09:04:35.937Z,35.84
2023-05-01T09:07:03.972Z,35.87
2023-05-01T09:09:32.172Z,35.91
2023-05-01T09:12:14.785Z,36.06
2023-05-01T09:14:42.097Z,35.97
2023-05-01T09:17:09.734Z,36.02
2023-05-01T09:19:37.049Z,36.12
2023-05-01T09:22:10.386Z,36.25
2023-05-01T09:24:37.908Z,36.21
2023-05-01T09:27:06.644Z,36.17
2023-05-01T09:29:42.744Z,36.33
2023-05-01T09:32:31.428Z,36.28
2023-05-01T09:35:13.136Z,36.57
2023-05-01T09:37:41.249Z,36.57
2023-05-01T09:43:03.484Z,36.66
2023-05-01T10:23:26.207Z,41.61
2023-05-01T10:25:54.261Z,41.81
2023-05-01T10:28:22.156Z,41.70
2023-05-01T10:30:50.474Z,41.93
2023-05-01T10:33:19.793Z,41.88
2023-05-01T10:35:56.130Z,41.84
2023-05-01T10:38:29.092Z,42.00
2023-05-01T10:40:56.140Z,42.16
2023-05-01T10:43:31.133Z,42.26
2023-05-01T10:48:45.008Z,42.58
2023-05-01T10:51:18.202Z,42.76
2023-05-01T10:53:46.938Z,42.88
2023-05-01T10:56:26.049Z,43.15
2023-05-01T10:59:01.184Z,43.14
2023-05-01T11:01:38.175Z,43.36
2023-05-01T11:04:10.644Z,43.35
2023-05-01T11:06:40.440Z,43.41
2023-05-01T11:10:01.283Z,43.67
2023-05-01T11:13:00.752Z,43.74
2023-05-01T11:15:52.762Z,43.78
2023-05-01T11:18:53.487Z,43.81
2023-05-01T11:21:44.629Z,43.87
2023-05-01T11:30:25.491Z,44.01
2023-05-01T11:32:53.853Z,43.95
2023-05-01T11:35:39.565Z,44.00
2023-05-01T11:38:31.157Z,44.11
2023-05-01T11:41:01.983Z,44.20
2023-05-01T11:43:35.437Z,44.14
2023-05-01T11:46:33.416Z,44.11
2023-05-01T11:49:03.188Z,44.31
2023-05-01T11:51:30.886Z,44.31
2023-05-01T11:54:30.212Z,44.38
2023-05-01T11:57:21.827Z,44.46
2023-05-01T11:59:53.305Z,44.43
2023-05-01T12:02:22.827Z,44.45
2023-05-01T12:04:52.744Z,44.67
2023-05-01T12:07:44.572Z,44.53
2023-05-01T12:10:16.721Z,44.51
2023-05-01T12:12:47.683Z,44.63
2023-05-01T12:15:16.332Z,44.89
2023-05-01T12:17:48.924Z,44.82
2023-05-01T12:20:23.809Z,45.13
2023-05-01T12:22:54.356Z,45.09
2023-05-01T12:25:25.042Z,45.31
2023-05-01T12:27:55.277Z,45.41
2023-05-01T12:30:34.828Z,45.47
2023-05-01T12:33:28.114Z,45.57
2023-05-01T12:36:17.268Z,45.42
2023-05-01T12:39:10.702Z,45.50
2023-05-01T12:41:54.691Z,45.55
2023-05-01T12:44:27.792Z,45.25
2023-05-01T12:47:09.159Z,45.33
2023-05-01T12:49:41.004Z,45.18
2023-05-01T12:52:16.815Z,45.02
2023-05-01T12:54:55.916Z,45.08
2023-05-01T12:57:23.154Z,44.83
2023-05-01T13:00:03.621Z,44.82
2023-05-01T13:02:35.179Z,45.09
2023-05-01T13:05:13.407Z,44.96
2023-05-01T13:07:47.985Z,44.96
2023-05-01T13:10:15.903Z,44.96
2023-05-01T13:12:46.604Z,44.98
2023-05-01T13:15:21.972Z,44.70
2023-05-01T13:17:50.157Z,44.53
2023-05-01T13:20:27.237Z,44.51
2023-05-01T13:22:54.519Z,44.47
2023-05-01T13:25:21.849Z,44.54
2023-05-01T13:27:53.561Z,44.44
2023-05-01T13:30:30.954Z,44.33
2023-05-01T13:32:58.325Z,44.09
2023-05-01T13:35:40.712Z,43.97
2023-05-01T13:38:13.016Z,43.99
2023-05-01T13:40:46.239Z,43.92
2023-05-01T13:43:22.677Z,44.01
2023-05-01T13:45:49.956Z,43.82
2023-05-01T13:48:25.736Z,43.89
2023-05-01T13:54:57.094Z,44.06
2023-05-01T13:57:24.615Z,43.86
2023-05-01T14:00:08.899Z,44.00
2023-05-01T14:02:43.980Z,44.07
2023-05-01T14:05:12.110Z,43.89
2023-05-01T14:08:02.605Z,43.82
2023-05-01T14:13:23.001Z,43.26
2023-05-01T14:15:50.157Z,42.98
2023-05-01T14:18:21.029Z,42.74
2023-05-01T14:20:48.285Z,42.50
2023-05-01T14:23:17.161Z,42.20
2023-05-01T14:25:49.322Z,42.01
2023-05-01T14:28:16.767Z,41.56
2023-05-01T14:30:44.426Z,41.29
2023-05-01T14:33:14.380Z,41.32
2023-05-01T14:35:51.506Z,41.17
2023-05-01T14:38:20.709Z,40.98
2023-05-01T14:40:52.013Z,40.78
2023-05-01T14:43:21.969Z,40.88
2023-05-01T14:45:51.660Z,40.60
2023-05-01T14:48:24.100Z,40.54
2023-05-01T14:50:52.460Z,40.55
2023-05-01T14:53:19.557Z,40.40
2023-05-01T14:55:50.706Z,40.30
2023-05-01T14:58:17.810Z,40.28
2023-05-01T15:00:44.877Z,40.29
2023-05-01T15:03:12.237Z,40.24
2023-05-01T15:05:39.914Z,40.11
2023-05-01T15:08:08.683Z,40.06
2023-05-01T15:10:36.349Z,40.10
2023-05-01T15:13:03.446Z,40.01
2023-05-01T15:15:32.024Z,40.08
2023-05-01T15:17:59.246Z,40.00
2023-05-01T15:20:26.437Z,39.97
2023-05-01T15:22:54.127Z,39.80
2023-05-01T15:25:21.595Z,39.88
2023-05-01T15:27:50.565Z,39.69
2023-05-01T15:30:17.657Z,39.75
2023-05-01T15:32:44.973Z,39.69
2023-05-01T15:35:12.313Z,39.59
2023-05-01T15:37:39.540Z,39.58
2023-05-01T15:40:07.463Z,39.49
2023-05-01T15:43:34.213Z,39.25
2023-05-01T15:46:01.597Z,39.21
2023-05-01T15:48:29.013Z,39.25
2023-05-01T15:50:56.152Z,39.20
2023-05-01T15:53:33.896Z,39.04
2023-05-01T15:56:03.762Z,39.23
2023-05-01T15:59:20.635Z,39.12
2023-05-01T16:02:06.117Z,39.18
2023-05-01T16:04:34.860Z,39.07
2023-05-01T16:07:21.199Z,38.85
2023-05-01T16:31:38.496Z,38.53
2023-05-01T16:34:30.831Z,38.38
2023-05-01T16:42:57.868Z,38.39
2023-05-01T16:46:04.841Z,38.55
2023-05-01T16:48:48.281Z,38.38
2023-05-01T16:51:16.145Z,38.42
2023-05-01T16:53:55.121Z,38.29
2023-05-01T16:56:24.589Z,38.22
2023-05-01T16:58:55.026Z,38.24
2023-05-01T17:01:22.152Z,38.26
2023-05-01T17:03:49.397Z,38.13
2023-05-01T17:06:16.614Z,38.02
2023-05-01T17:08:44.612Z,37.93
2023-05-01T17:11:12.087Z,37.89
2023-05-01T17:13:56.139Z,37.78
2023-05-01T17:16:23.298Z,37.74
2023-05-01T17:18:50.602Z,37.73
2023-05-01T17:21:25.478Z,37.64
2023-05-01T17:35:06.447Z,37.50
2023-05-01T17:37:33.792Z,37.50
2023-05-01T17:40:02.262Z,37.40
2023-05-01T17:42:39.885Z,37.43
2023-05-01T17:48:34.158Z,37.17
2023-05-01T17:51:01.449Z,37.19
2023-05-01T17:53:31.402Z,37.19
2023-05-01T17:55:58.652Z,37.06
2023-05-01T17:58:43.270Z,37.21
2023-05-01T18:01:13.063Z,37.04
2023-05-01T18:03:40.252Z,37.12
2023-05-01T18:06:07.455Z,37.17
2023-05-01T18:08:34.872Z,37.05
2023-05-01T18:11:02.636Z,37.05
2023-05-01T18:13:32.784Z,37.19
2023-05-01T18:16:11.523Z,37.14
2023-05-01T18:18:47.274Z,36.93
2023-05-01T18:21:26.598Z,36.82
2023-05-01T18:23:53.667Z,36.89
2023-05-01T18:26:20.676Z,36.82
2023-05-01T18:28:47.800Z,36.77
2023-05-01T18:31:17.767Z,36.77
2023-05-01T18:33:50.566Z,36.76
2023-05-01T18:36:19.266Z,36.49
2023-05-01T18:39:23.189Z,36.53
2023-05-01T18:45:08.022Z,36.69
2023-05-01T18:47:35.163Z,36.46
2023-05-01T18:50:09.955Z,36.62
2023-05-01T18:52:42.198Z,36.57
2023-05-01T18:55:11.729Z,36.42
2023-05-01T18:57:44.626Z,36.44
2023-05-01T19:00:18.529Z,36.47
2023-05-01T19:10:31.011Z,36.28
2023-05-01T19:14:01.154Z,36.07
2023-05-01T19:19:59.282Z,36.16
2023-05-01T19:22:27.278Z,36.05
2023-05-01T19:24:54.377Z,36.11
2023-05-01T19:27:21.699Z,36.06
2023-05-01T19:29:48.933Z,35.92
2023-05-01T19:32:16.169Z,36.00
2023-05-01T19:34:43.321Z,35.92
2023-05-01T19:37:13.418Z,35.96
2023-05-01T19:39:42.124Z,35.96
2023-05-01T19:42:18.002Z,35.78
2023-05-01T19:44:46.351Z,35.87
2023-05-01T19:47:13.639Z,35.85
2023-05-01T19:49:54.230Z,35.78
2023-05-01T19:52:24.112Z,35.63
2023-05-01T19:54:51.222Z,35.79
2023-05-01T19:57:18.416Z,35.76
2023-05-01T19:59:45.728Z,35.66
2023-05-01T20:02:14.722Z,35.68
2023-05-01T20:08:56.477Z,35.51
2023-05-01T20:16:55.977Z,35.52
2023-05-01T20:19:23.624Z,35.57
2023-05-01T20:21:50.682Z,35.52
2023-05-01T20:24:17.825Z,35.52
2023-05-01T20:26:45.013Z,35.46
2023-05-01T20:29:13.470Z,35.62
2023-05-01T20:31:40.821Z,35.48
2023-05-01T20:34:10.810Z,35.46
2023-05-01T20:36:41.046Z,35.43
2023-05-01T20:39:08.576Z,35.33
2023-05-01T20:41:35.629Z,35.53
2023-05-01T20:44:02.813Z,35.49
2023-05-01T20:46:30.103Z,35.38
2023-05-01T20:48:57.386Z,35.33
2023-05-01T20:51:25.321Z,35.30
2023-05-01T20:53:52.347Z,35.29
